sensor_id;sensor_type;location;lat;lon;timestamp;temperature;humidity
33105;DHT22;19476;51.448;6.674;2022-12-07T00:01:03;12.10;55.30
33105;DHT22;19476;51.448;6.674;2022-12-07T00:03:29;12.10;55.40
33105;DHT22;19476;51.448;6.674;2022-12-07T00:05:58;12.10;55.30
33105;DHT22;19476;51.448;6.674;2022-12-07T00:08:24;12.10;55.40
33105;DHT22;19476;51.448;6.674;2022-12-07T00:10:50;12.10;55.30
33105;DHT22;19476;51.448;6.674;2022-12-07T00:13:15;12.10;55.30
33105;DHT22;19476;51.448;6.674;2022-12-07T00:15:41;12.00;55.30
33105;DHT22;19476;51.448;6.674;2022-12-07T00:18:08;12.00;55.40
33105;DHT22;19476;51.448;6.674;2022-12-07T00:20:34;12.00;55.50
33105;DHT22;19476;51.448;6.674;2022-12-07T00:23:00;12.00;55.50
33105;DHT22;19476;51.448;6.674;2022-12-07T00:25:26;12.00;55.60
33105;DHT22;19476;51.448;6.674;2022-12-07T00:27:53;11.90;55.60
33105;DHT22;19476;51.448;6.674;2022-12-07T00:30:21;11.90;55.70
33105;DHT22;19476;51.448;6.674;2022-12-07T00:32:47;12.00;55.70
33105;DHT22;19476;51.448;6.674;2022-12-07T00:35:13;11.90;55.70
33105;DHT22;19476;51.448;6.674;2022-12-07T00:37:39;11.90;55.80
33105;DHT22;19476;51.448;6.674;2022-12-07T00:40:06;11.90;55.70
33105;DHT22;19476;51.448;6.674;2022-12-07T00:42:32;11.90;55.90
33105;DHT22;19476;51.448;6.674;2022-12-07T00:44:58;11.90;55.90
33105;DHT22;19476;51.448;6.674;2022-12-07T00:47:24;11.90;55.90
33105;DHT22;19476;51.448;6.674;2022-12-07T00:49:50;11.90;55.80
33105;DHT22;19476;51.448;6.674;2022-12-07T00:52:16;12.00;55.80
33105;DHT22;19476;51.448;6.674;2022-12-07T00:54:44;12.00;55.80
33105;DHT22;19476;51.448;6.674;2022-12-07T00:57:10;11.90;55.80
33105;DHT22;19476;51.448;6.674;2022-12-07T00:59:36;11.90;55.70
33105;DHT22;19476;51.448;6.674;2022-12-07T01:02:02;11.90;55.80
33105;DHT22;19476;51.448;6.674;2022-12-07T01:04:28;11.90;55.80
33105;DHT22;19476;51.448;6.674;2022-12-07T01:06:55;11.90;55.80
33105;DHT22;19476;51.448;6.674;2022-12-07T01:09:20;11.90;55.80
33105;DHT22;19476;51.448;6.674;2022-12-07T01:11:46;11.90;55.80
33105;DHT22;19476;51.448;6.674;2022-12-07T01:14:12;11.90;55.80
33105;DHT22;19476;51.448;6.674;2022-12-07T01:16:38;11.90;55.80
33105;DHT22;19476;51.448;6.674;2022-12-07T01:19:04;11.80;55.80
33105;DHT22;19476;51.448;6.674;2022-12-07T01:21:38;11.80;56.30
33105;DHT22;19476;51.448;6.674;2022-12-07T01:24:05;11.80;56.00
33105;DHT22;19476;51.448;6.674;2022-12-07T01:26:38;11.80;55.90
33105;DHT22;19476;51.448;6.674;2022-12-07T01:29:04;11.70;55.90
33105;DHT22;19476;51.448;6.674;2022-12-07T01:31:30;11.70;55.90
33105;DHT22;19476;51.448;6.674;2022-12-07T01:34:04;11.70;55.90
33105;DHT22;19476;51.448;6.674;2022-12-07T01:36:32;11.70;56.10
33105;DHT22;19476;51.448;6.674;2022-12-07T01:39:02;11.70;56.00
33105;DHT22;19476;51.448;6.674;2022-12-07T01:41:31;11.90;56.10
33105;DHT22;19476;51.448;6.674;2022-12-07T01:44:27;11.70;56.00
33105;DHT22;19476;51.448;6.674;2022-12-07T01:47:03;11.70;56.10
33105;DHT22;19476;51.448;6.674;2022-12-07T01:49:45;11.60;55.90
33105;DHT22;19476;51.448;6.674;2022-12-07T01:54:51;11.60;55.90
33105;DHT22;19476;51.448;6.674;2022-12-07T01:57:19;11.60;56.00
33105;DHT22;19476;51.448;6.674;2022-12-07T01:59:53;11.70;56.10
33105;DHT22;19476;51.448;6.674;2022-12-07T02:02:32;11.70;56.10
33105;DHT22;19476;51.448;6.674;2022-12-07T02:04:59;11.70;55.90
33105;DHT22;19476;51.448;6.674;2022-12-07T02:07:26;11.70;55.80
33105;DHT22;19476;51.448;6.674;2022-12-07T02:09:56;11.70;55.90
33105;DHT22;19476;51.448;6.674;2022-12-07T02:12:26;11.70;55.80
33105;DHT22;19476;51.448;6.674;2022-12-07T02:14:57;11.70;55.80
33105;DHT22;19476;51.448;6.674;2022-12-07T02:17:45;11.70;56.00
33105;DHT22;19476;51.448;6.674;2022-12-07T02:20:31;11.70;55.90
33105;DHT22;19476;51.448;6.674;2022-12-07T02:26:39;11.60;55.90
33105;DHT22;19476;51.448;6.674;2022-12-07T02:29:23;11.60;55.90
33105;DHT22;19476;51.448;6.674;2022-12-07T02:32:16;11.60;55.80
33105;DHT22;19476;51.448;6.674;2022-12-07T02:34:58;11.60;55.80
33105;DHT22;19476;51.448;6.674;2022-12-07T02:37:52;11.60;55.70
33105;DHT22;19476;51.448;6.674;2022-12-07T02:40:42;11.60;55.70
33105;DHT22;19476;51.448;6.674;2022-12-07T02:43:41;11.50;55.60
33105;DHT22;19476;51.448;6.674;2022-12-07T02:46:20;11.60;55.60
33105;DHT22;19476;51.448;6.674;2022-12-07T02:49:09;11.50;55.60
33105;DHT22;19476;51.448;6.674;2022-12-07T02:52:01;11.50;55.80
33105;DHT22;19476;51.448;6.674;2022-12-07T02:55:07;11.40;55.70
33105;DHT22;19476;51.448;6.674;2022-12-07T03:00:35;11.40;55.60
33105;DHT22;19476;51.448;6.674;2022-12-07T03:03:10;11.30;55.50
33105;DHT22;19476;51.448;6.674;2022-12-07T03:06:04;11.30;55.60
33105;DHT22;19476;51.448;6.674;2022-12-07T03:08:38;11.30;55.70
33105;DHT22;19476;51.448;6.674;2022-12-07T03:11:16;11.30;55.60
33105;DHT22;19476;51.448;6.674;2022-12-07T03:13:50;11.20;55.70
33105;DHT22;19476;51.448;6.674;2022-12-07T03:16:25;11.20;55.70
33105;DHT22;19476;51.448;6.674;2022-12-07T03:18:55;11.20;55.70
33105;DHT22;19476;51.448;6.674;2022-12-07T03:21:31;11.30;55.80
33105;DHT22;19476;51.448;6.674;2022-12-07T03:24:45;11.20;55.70
33105;DHT22;19476;51.448;6.674;2022-12-07T03:26:52;11.20;55.70
33105;DHT22;19476;51.448;6.674;2022-12-07T03:29:39;11.10;55.60
33105;DHT22;19476;51.448;6.674;2022-12-07T03:32:16;11.10;55.80
33105;DHT22;19476;51.448;6.674;2022-12-07T03:35:00;11.10;55.60
33105;DHT22;19476;51.448;6.674;2022-12-07T03:37:45;11.10;55.60
33105;DHT22;19476;51.448;6.674;2022-12-07T03:43:01;11.10;55.60
33105;DHT22;19476;51.448;6.674;2022-12-07T03:45:44;11.10;55.60
33105;DHT22;19476;51.448;6.674;2022-12-07T03:48:49;11.10;55.70
33105;DHT22;19476;51.448;6.674;2022-12-07T03:54:18;11.00;55.60
33105;DHT22;19476;51.448;6.674;2022-12-07T03:56:46;11.10;55.80
33105;DHT22;19476;51.448;6.674;2022-12-07T03:59:17;11.10;55.80
33105;DHT22;19476;51.448;6.674;2022-12-07T04:01:44;11.10;55.90
33105;DHT22;19476;51.448;6.674;2022-12-07T04:04:11;11.10;55.90
33105;DHT22;19476;51.448;6.674;2022-12-07T04:07:07;11.10;55.70
33105;DHT22;19476;51.448;6.674;2022-12-07T04:09:54;11.10;56.30
33105;DHT22;19476;51.448;6.674;2022-12-07T04:12:21;11.20;55.70
33105;DHT22;19476;51.448;6.674;2022-12-07T04:14:56;11.20;55.50
33105;DHT22;19476;51.448;6.674;2022-12-07T04:17:23;11.20;55.50
33105;DHT22;19476;51.448;6.674;2022-12-07T04:19:49;11.00;55.40
33105;DHT22;19476;51.448;6.674;2022-12-07T04:22:18;11.10;55.40
33105;DHT22;19476;51.448;6.674;2022-12-07T04:24:44;11.10;55.40
33105;DHT22;19476;51.448;6.674;2022-12-07T04:27:10;11.10;55.40
33105;DHT22;19476;51.448;6.674;2022-12-07T04:29:48;11.10;55.40
33105;DHT22;19476;51.448;6.674;2022-12-07T04:32:28;11.10;55.40
33105;DHT22;19476;51.448;6.674;2022-12-07T04:37:46;11.10;55.40
33105;DHT22;19476;51.448;6.674;2022-12-07T04:40:18;11.10;55.40
33105;DHT22;19476;51.448;6.674;2022-12-07T04:42:43;11.10;55.30
33105;DHT22;19476;51.448;6.674;2022-12-07T04:45:09;10.80;55.00
33105;DHT22;19476;51.448;6.674;2022-12-07T04:47:35;11.10;55.20
33105;DHT22;19476;51.448;6.674;2022-12-07T04:50:02;11.10;55.10
33105;DHT22;19476;51.448;6.674;2022-12-07T04:53:11;11.10;55.10
33105;DHT22;19476;51.448;6.674;2022-12-07T04:55:18;11.00;55.20
33105;DHT22;19476;51.448;6.674;2022-12-07T04:57:44;11.00;55.10
33105;DHT22;19476;51.448;6.674;2022-12-07T05:00:10;11.30;55.30
33105;DHT22;19476;51.448;6.674;2022-12-07T05:02:36;10.90;55.20
33105;DHT22;19476;51.448;6.674;2022-12-07T05:05:05;10.90;55.20
33105;DHT22;19476;51.448;6.674;2022-12-07T05:07:31;10.90;55.30
33105;DHT22;19476;51.448;6.674;2022-12-07T05:10:20;10.90;55.20
33105;DHT22;19476;51.448;6.674;2022-12-07T05:12:46;10.90;55.30
33105;DHT22;19476;51.448;6.674;2022-12-07T05:15:13;10.90;55.30
33105;DHT22;19476;51.448;6.674;2022-12-07T05:17:39;10.90;55.40
33105;DHT22;19476;51.448;6.674;2022-12-07T05:20:06;10.80;55.30
33105;DHT22;19476;51.448;6.674;2022-12-07T05:22:41;10.80;55.40
33105;DHT22;19476;51.448;6.674;2022-12-07T05:25:07;10.90;55.60
33105;DHT22;19476;51.448;6.674;2022-12-07T05:27:33;10.80;55.40
33105;DHT22;19476;51.448;6.674;2022-12-07T05:30:09;10.90;55.50
33105;DHT22;19476;51.448;6.674;2022-12-07T05:32:46;10.90;55.50
33105;DHT22;19476;51.448;6.674;2022-12-07T05:35:12;10.90;55.50
33105;DHT22;19476;51.448;6.674;2022-12-07T05:37:38;10.90;55.50
33105;DHT22;19476;51.448;6.674;2022-12-07T05:40:05;10.90;55.50
33105;DHT22;19476;51.448;6.674;2022-12-07T05:42:34;10.90;55.50
33105;DHT22;19476;51.448;6.674;2022-12-07T05:45:00;11.00;55.50
33105;DHT22;19476;51.448;6.674;2022-12-07T05:47:26;11.00;55.40
33105;DHT22;19476;51.448;6.674;2022-12-07T05:49:55;11.00;55.40
33105;DHT22;19476;51.448;6.674;2022-12-07T05:52:22;11.10;55.40
33105;DHT22;19476;51.448;6.674;2022-12-07T05:54:48;11.10;55.30
33105;DHT22;19476;51.448;6.674;2022-12-07T05:57:14;11.10;55.20
33105;DHT22;19476;51.448;6.674;2022-12-07T05:59:40;11.10;55.10
33105;DHT22;19476;51.448;6.674;2022-12-07T06:02:17;11.10;55.00
33105;DHT22;19476;51.448;6.674;2022-12-07T06:04:45;11.10;54.80
33105;DHT22;19476;51.448;6.674;2022-12-07T06:07:13;11.20;54.90
33105;DHT22;19476;51.448;6.674;2022-12-07T06:09:40;11.20;54.90
33105;DHT22;19476;51.448;6.674;2022-12-07T06:12:08;11.20;54.90
33105;DHT22;19476;51.448;6.674;2022-12-07T06:14:53;11.20;55.10
33105;DHT22;19476;51.448;6.674;2022-12-07T06:17:18;11.20;55.00
33105;DHT22;19476;51.448;6.674;2022-12-07T06:19:46;11.30;54.90
33105;DHT22;19476;51.448;6.674;2022-12-07T06:22:12;11.30;54.70
33105;DHT22;19476;51.448;6.674;2022-12-07T06:24:38;11.30;54.70
33105;DHT22;19476;51.448;6.674;2022-12-07T06:27:04;11.30;54.50
33105;DHT22;19476;51.448;6.674;2022-12-07T06:29:30;11.30;55.00
33105;DHT22;19476;51.448;6.674;2022-12-07T06:31:56;11.30;54.40
33105;DHT22;19476;51.448;6.674;2022-12-07T06:34:23;11.30;54.40
33105;DHT22;19476;51.448;6.674;2022-12-07T06:36:49;11.30;54.40
33105;DHT22;19476;51.448;6.674;2022-12-07T06:39:21;11.20;54.20
33105;DHT22;19476;51.448;6.674;2022-12-07T06:41:47;11.20;54.30
33105;DHT22;19476;51.448;6.674;2022-12-07T06:44:13;11.20;55.10
33105;DHT22;19476;51.448;6.674;2022-12-07T06:46:38;11.20;54.30
33105;DHT22;19476;51.448;6.674;2022-12-07T06:49:05;11.10;54.30
33105;DHT22;19476;51.448;6.674;2022-12-07T06:51:32;11.10;54.50
33105;DHT22;19476;51.448;6.674;2022-12-07T06:53:58;11.10;54.60
33105;DHT22;19476;51.448;6.674;2022-12-07T06:56:24;11.10;54.70
33105;DHT22;19476;51.448;6.674;2022-12-07T06:58:49;11.10;54.70
33105;DHT22;19476;51.448;6.674;2022-12-07T07:01:17;11.10;54.70
33105;DHT22;19476;51.448;6.674;2022-12-07T07:03:44;11.20;54.90
33105;DHT22;19476;51.448;6.674;2022-12-07T07:06:11;11.10;54.70
33105;DHT22;19476;51.448;6.674;2022-12-07T07:08:38;11.20;54.70
33105;DHT22;19476;51.448;6.674;2022-12-07T07:11:04;11.20;54.60
33105;DHT22;19476;51.448;6.674;2022-12-07T07:13:30;11.20;54.60
33105;DHT22;19476;51.448;6.674;2022-12-07T07:15:56;11.20;54.60
33105;DHT22;19476;51.448;6.674;2022-12-07T07:18:22;11.20;54.50
33105;DHT22;19476;51.448;6.674;2022-12-07T07:20:49;11.20;54.50
33105;DHT22;19476;51.448;6.674;2022-12-07T07:23:15;11.20;54.60
33105;DHT22;19476;51.448;6.674;2022-12-07T07:25:41;11.30;54.60
33105;DHT22;19476;51.448;6.674;2022-12-07T07:28:07;11.30;54.50
33105;DHT22;19476;51.448;6.674;2022-12-07T07:30:33;11.30;54.30
33105;DHT22;19476;51.448;6.674;2022-12-07T07:33:02;11.30;54.20
33105;DHT22;19476;51.448;6.674;2022-12-07T07:35:30;11.30;54.00
33105;DHT22;19476;51.448;6.674;2022-12-07T07:37:56;11.30;54.00
33105;DHT22;19476;51.448;6.674;2022-12-07T07:40:23;11.30;54.00
33105;DHT22;19476;51.448;6.674;2022-12-07T07:42:53;11.20;54.00
33105;DHT22;19476;51.448;6.674;2022-12-07T07:45:20;11.20;53.90
33105;DHT22;19476;51.448;6.674;2022-12-07T07:47:46;11.20;54.00
33105;DHT22;19476;51.448;6.674;2022-12-07T07:50:12;11.20;54.00
33105;DHT22;19476;51.448;6.674;2022-12-07T07:52:39;11.20;53.90
33105;DHT22;19476;51.448;6.674;2022-12-07T07:55:05;11.20;53.90
33105;DHT22;19476;51.448;6.674;2022-12-07T07:57:32;11.10;53.90
33105;DHT22;19476;51.448;6.674;2022-12-07T07:59:58;11.10;53.90
33105;DHT22;19476;51.448;6.674;2022-12-07T08:02:24;11.10;53.90
33105;DHT22;19476;51.448;6.674;2022-12-07T08:04:50;11.10;54.00
33105;DHT22;19476;51.448;6.674;2022-12-07T08:07:16;11.10;53.90
33105;DHT22;19476;51.448;6.674;2022-12-07T08:09:42;11.00;53.90
33105;DHT22;19476;51.448;6.674;2022-12-07T08:12:08;11.00;54.00
33105;DHT22;19476;51.448;6.674;2022-12-07T08:14:34;11.00;54.00
33105;DHT22;19476;51.448;6.674;2022-12-07T08:17:00;11.00;54.10
33105;DHT22;19476;51.448;6.674;2022-12-07T08:19:26;11.00;54.00
33105;DHT22;19476;51.448;6.674;2022-12-07T08:21:56;11.00;54.00
33105;DHT22;19476;51.448;6.674;2022-12-07T08:24:23;11.00;53.90
33105;DHT22;19476;51.448;6.674;2022-12-07T08:26:54;11.00;54.00
33105;DHT22;19476;51.448;6.674;2022-12-07T08:29:20;11.00;53.90
33105;DHT22;19476;51.448;6.674;2022-12-07T08:31:46;10.90;53.80
33105;DHT22;19476;51.448;6.674;2022-12-07T08:34:13;10.90;53.90
33105;DHT22;19476;51.448;6.674;2022-12-07T08:36:39;10.90;54.00
33105;DHT22;19476;51.448;6.674;2022-12-07T08:39:05;10.90;54.20
33105;DHT22;19476;51.448;6.674;2022-12-07T08:41:31;10.80;54.30
33105;DHT22;19476;51.448;6.674;2022-12-07T08:43:57;10.80;54.50
33105;DHT22;19476;51.448;6.674;2022-12-07T08:46:28;10.80;54.50
33105;DHT22;19476;51.448;6.674;2022-12-07T08:49:18;10.80;54.60
33105;DHT22;19476;51.448;6.674;2022-12-07T08:51:46;10.80;54.80
33105;DHT22;19476;51.448;6.674;2022-12-07T08:54:15;10.80;54.70
33105;DHT22;19476;51.448;6.674;2022-12-07T08:56:42;10.80;54.80
33105;DHT22;19476;51.448;6.674;2022-12-07T08:59:09;10.80;54.80
33105;DHT22;19476;51.448;6.674;2022-12-07T09:01:35;10.80;54.90
33105;DHT22;19476;51.448;6.674;2022-12-07T09:04:01;10.80;54.90
33105;DHT22;19476;51.448;6.674;2022-12-07T09:06:26;10.80;55.00
33105;DHT22;19476;51.448;6.674;2022-12-07T09:08:56;10.80;55.20
33105;DHT22;19476;51.448;6.674;2022-12-07T09:11:22;10.80;55.30
33105;DHT22;19476;51.448;6.674;2022-12-07T09:13:48;10.80;55.30
33105;DHT22;19476;51.448;6.674;2022-12-07T09:16:14;10.90;55.40
33105;DHT22;19476;51.448;6.674;2022-12-07T09:18:40;10.90;55.40
33105;DHT22;19476;51.448;6.674;2022-12-07T09:21:07;11.00;55.40
33105;DHT22;19476;51.448;6.674;2022-12-07T09:23:33;11.00;55.30
33105;DHT22;19476;51.448;6.674;2022-12-07T09:26:00;11.10;55.30
33105;DHT22;19476;51.448;6.674;2022-12-07T09:28:26;11.10;55.20
33105;DHT22;19476;51.448;6.674;2022-12-07T09:30:52;11.10;55.00
33105;DHT22;19476;51.448;6.674;2022-12-07T09:33:17;11.10;55.00
33105;DHT22;19476;51.448;6.674;2022-12-07T09:35:48;11.10;54.90
33105;DHT22;19476;51.448;6.674;2022-12-07T09:38:14;11.10;55.00
33105;DHT22;19476;51.448;6.674;2022-12-07T09:40:41;11.20;54.90
33105;DHT22;19476;51.448;6.674;2022-12-07T09:43:18;11.20;54.90
33105;DHT22;19476;51.448;6.674;2022-12-07T09:45:45;11.20;54.80
33105;DHT22;19476;51.448;6.674;2022-12-07T09:48:21;11.20;54.90
33105;DHT22;19476;51.448;6.674;2022-12-07T09:50:48;11.20;55.00
33105;DHT22;19476;51.448;6.674;2022-12-07T09:55:45;11.30;55.00
33105;DHT22;19476;51.448;6.674;2022-12-07T09:58:24;11.30;54.90
33105;DHT22;19476;51.448;6.674;2022-12-07T10:01:24;11.30;55.00
33105;DHT22;19476;51.448;6.674;2022-12-07T10:03:53;11.40;55.10
33105;DHT22;19476;51.448;6.674;2022-12-07T10:06:20;11.40;54.70
33105;DHT22;19476;51.448;6.674;2022-12-07T10:08:46;11.40;54.70
33105;DHT22;19476;51.448;6.674;2022-12-07T10:11:12;11.40;54.80
33105;DHT22;19476;51.448;6.674;2022-12-07T10:13:44;11.50;54.80
33105;DHT22;19476;51.448;6.674;2022-12-07T10:16:38;11.50;54.70
33105;DHT22;19476;51.448;6.674;2022-12-07T10:22:04;11.50;54.60
33105;DHT22;19476;51.448;6.674;2022-12-07T10:24:30;11.50;54.40
33105;DHT22;19476;51.448;6.674;2022-12-07T10:26:56;11.60;54.50
33105;DHT22;19476;51.448;6.674;2022-12-07T10:29:33;11.60;54.50
33105;DHT22;19476;51.448;6.674;2022-12-07T10:32:23;11.60;54.50
33105;DHT22;19476;51.448;6.674;2022-12-07T10:34:56;11.60;54.40
33105;DHT22;19476;51.448;6.674;2022-12-07T10:37:41;11.60;54.40
33105;DHT22;19476;51.448;6.674;2022-12-07T10:40:33;11.70;54.40
33105;DHT22;19476;51.448;6.674;2022-12-07T10:45:28;11.80;54.30
33105;DHT22;19476;51.448;6.674;2022-12-07T10:48:16;11.80;54.20
33105;DHT22;19476;51.448;6.674;2022-12-07T10:54:14;11.90;53.90
33105;DHT22;19476;51.448;6.674;2022-12-07T11:00:24;11.90;53.60
33105;DHT22;19476;51.448;6.674;2022-12-07T11:13:40;11.90;53.20
33105;DHT22;19476;51.448;6.674;2022-12-07T11:19:43;12.00;53.30
33105;DHT22;19476;51.448;6.674;2022-12-07T11:24:17;12.00;53.30
33105;DHT22;19476;51.448;6.674;2022-12-07T11:37:10;12.10;53.10
33105;DHT22;19476;51.448;6.674;2022-12-07T11:40:05;12.10;53.20
33105;DHT22;19476;51.448;6.674;2022-12-07T11:42:41;12.20;53.10
33105;DHT22;19476;51.448;6.674;2022-12-07T11:48:29;12.20;52.70
33105;DHT22;19476;51.448;6.674;2022-12-07T11:50:59;12.20;52.80
33105;DHT22;19476;51.448;6.674;2022-12-07T11:53:51;12.20;52.90
33105;DHT22;19476;51.448;6.674;2022-12-07T11:56:23;12.20;52.80
33105;DHT22;19476;51.448;6.674;2022-12-07T11:59:23;12.30;52.70
33105;DHT22;19476;51.448;6.674;2022-12-07T12:05:05;12.20;52.60
33105;DHT22;19476;51.448;6.674;2022-12-07T12:07:33;12.10;52.60
33105;DHT22;19476;51.448;6.674;2022-12-07T12:10:04;12.10;52.60
33105;DHT22;19476;51.448;6.674;2022-12-07T12:12:50;12.10;52.70
33105;DHT22;19476;51.448;6.674;2022-12-07T12:21:17;12.00;52.70
33105;DHT22;19476;51.448;6.674;2022-12-07T12:24:04;12.00;52.80
33105;DHT22;19476;51.448;6.674;2022-12-07T12:26:33;12.00;52.80
33105;DHT22;19476;51.448;6.674;2022-12-07T12:29:02;12.00;53.00
33105;DHT22;19476;51.448;6.674;2022-12-07T12:31:34;12.00;53.10
33105;DHT22;19476;51.448;6.674;2022-12-07T12:34:04;12.00;53.10
33105;DHT22;19476;51.448;6.674;2022-12-07T12:36:46;12.00;53.00
33105;DHT22;19476;51.448;6.674;2022-12-07T12:39:15;11.70;52.90
33105;DHT22;19476;51.448;6.674;2022-12-07T12:47:04;12.10;53.00
33105;DHT22;19476;51.448;6.674;2022-12-07T12:49:43;12.10;52.90
33105;DHT22;19476;51.448;6.674;2022-12-07T12:57:36;12.20;52.80
33105;DHT22;19476;51.448;6.674;2022-12-07T13:00:23;12.20;52.90
33105;DHT22;19476;51.448;6.674;2022-12-07T13:02:53;12.20;52.90
33105;DHT22;19476;51.448;6.674;2022-12-07T13:18:04;12.30;52.90
33105;DHT22;19476;51.448;6.674;2022-12-07T13:26:35;12.30;52.80
33105;DHT22;19476;51.448;6.674;2022-12-07T13:31:42;12.40;52.60
33105;DHT22;19476;51.448;6.674;2022-12-07T13:34:31;12.40;52.30
33105;DHT22;19476;51.448;6.674;2022-12-07T13:37:00;12.40;52.30
33105;DHT22;19476;51.448;6.674;2022-12-07T13:39:28;12.40;52.40
33105;DHT22;19476;51.448;6.674;2022-12-07T13:42:09;12.40;52.40
33105;DHT22;19476;51.448;6.674;2022-12-07T13:44:40;12.40;52.30
33105;DHT22;19476;51.448;6.674;2022-12-07T13:47:15;12.40;52.30
33105;DHT22;19476;51.448;6.674;2022-12-07T13:49:54;12.50;52.20
33105;DHT22;19476;51.448;6.674;2022-12-07T13:52:27;12.50;51.80
33105;DHT22;19476;51.448;6.674;2022-12-07T13:55:08;12.50;51.80
33105;DHT22;19476;51.448;6.674;2022-12-07T13:57:35;12.50;51.80
33105;DHT22;19476;51.448;6.674;2022-12-07T14:00:04;12.50;52.00
33105;DHT22;19476;51.448;6.674;2022-12-07T14:02:32;12.50;51.90
33105;DHT22;19476;51.448;6.674;2022-12-07T14:05:22;12.60;51.90
33105;DHT22;19476;51.448;6.674;2022-12-07T14:07:59;12.60;51.50
33105;DHT22;19476;51.448;6.674;2022-12-07T14:10:28;12.60;51.70
33105;DHT22;19476;51.448;6.674;2022-12-07T14:12:55;12.40;51.40
33105;DHT22;19476;51.448;6.674;2022-12-07T14:15:24;12.50;51.50
33105;DHT22;19476;51.448;6.674;2022-12-07T14:17:52;12.40;51.40
33105;DHT22;19476;51.448;6.674;2022-12-07T14:20:39;12.60;51.50
33105;DHT22;19476;51.448;6.674;2022-12-07T14:23:24;12.50;51.10
33105;DHT22;19476;51.448;6.674;2022-12-07T14:25:52;12.50;51.20
33105;DHT22;19476;51.448;6.674;2022-12-07T14:28:31;12.50;51.40
33105;DHT22;19476;51.448;6.674;2022-12-07T14:30:57;12.50;51.30
33105;DHT22;19476;51.448;6.674;2022-12-07T14:33:24;12.50;51.50
33105;DHT22;19476;51.448;6.674;2022-12-07T14:35:50;12.50;51.50
33105;DHT22;19476;51.448;6.674;2022-12-07T14:38:23;12.40;51.40
33105;DHT22;19476;51.448;6.674;2022-12-07T14:40:53;12.40;51.50
33105;DHT22;19476;51.448;6.674;2022-12-07T14:43:40;12.40;51.50
33105;DHT22;19476;51.448;6.674;2022-12-07T14:46:06;12.40;51.40
33105;DHT22;19476;51.448;6.674;2022-12-07T14:48:32;12.30;51.50
33105;DHT22;19476;51.448;6.674;2022-12-07T14:50:58;12.30;51.50
33105;DHT22;19476;51.448;6.674;2022-12-07T14:53:30;12.30;51.60
33105;DHT22;19476;51.448;6.674;2022-12-07T14:55:57;12.30;51.50
33105;DHT22;19476;51.448;6.674;2022-12-07T14:58:22;12.30;51.60
33105;DHT22;19476;51.448;6.674;2022-12-07T15:00:48;12.30;51.70
33105;DHT22;19476;51.448;6.674;2022-12-07T15:03:14;12.30;51.70
33105;DHT22;19476;51.448;6.674;2022-12-07T15:05:40;12.30;51.70
33105;DHT22;19476;51.448;6.674;2022-12-07T15:08:08;12.30;51.80
33105;DHT22;19476;51.448;6.674;2022-12-07T15:10:34;12.30;51.80
33105;DHT22;19476;51.448;6.674;2022-12-07T15:13:04;12.30;51.70
33105;DHT22;19476;51.448;6.674;2022-12-07T15:15:50;12.40;51.70
33105;DHT22;19476;51.448;6.674;2022-12-07T15:18:16;12.30;51.70
33105;DHT22;19476;51.448;6.674;2022-12-07T15:20:42;12.40;51.70
33105;DHT22;19476;51.448;6.674;2022-12-07T15:23:08;12.40;51.60
33105;DHT22;19476;51.448;6.674;2022-12-07T15:25:34;12.40;51.70
33105;DHT22;19476;51.448;6.674;2022-12-07T15:28:00;12.40;51.50
33105;DHT22;19476;51.448;6.674;2022-12-07T15:30:26;12.40;51.40
33105;DHT22;19476;51.448;6.674;2022-12-07T15:32:53;12.40;51.90
33105;DHT22;19476;51.448;6.674;2022-12-07T15:35:20;12.40;51.30
33105;DHT22;19476;51.448;6.674;2022-12-07T15:37:46;12.40;51.30
33105;DHT22;19476;51.448;6.674;2022-12-07T15:40:13;12.40;51.30
33105;DHT22;19476;51.448;6.674;2022-12-07T15:42:40;12.40;51.40
33105;DHT22;19476;51.448;6.674;2022-12-07T15:45:07;12.40;51.40
33105;DHT22;19476;51.448;6.674;2022-12-07T15:47:39;12.40;51.40
33105;DHT22;19476;51.448;6.674;2022-12-07T15:50:10;12.40;51.40
33105;DHT22;19476;51.448;6.674;2022-12-07T15:52:36;12.40;51.40
33105;DHT22;19476;51.448;6.674;2022-12-07T15:55:03;12.40;51.40
33105;DHT22;19476;51.448;6.674;2022-12-07T15:57:30;12.40;51.40
33105;DHT22;19476;51.448;6.674;2022-12-07T15:59:55;12.40;51.30
33105;DHT22;19476;51.448;6.674;2022-12-07T16:02:22;12.40;51.30
33105;DHT22;19476;51.448;6.674;2022-12-07T16:04:49;12.40;51.30
33105;DHT22;19476;51.448;6.674;2022-12-07T16:07:16;12.40;51.30
33105;DHT22;19476;51.448;6.674;2022-12-07T16:09:45;12.40;51.20
33105;DHT22;19476;51.448;6.674;2022-12-07T16:12:12;12.40;51.20
33105;DHT22;19476;51.448;6.674;2022-12-07T16:14:39;12.40;51.20
33105;DHT22;19476;51.448;6.674;2022-12-07T16:17:06;12.40;51.20
33105;DHT22;19476;51.448;6.674;2022-12-07T16:19:33;12.40;51.10
33105;DHT22;19476;51.448;6.674;2022-12-07T16:21:58;12.40;51.00
33105;DHT22;19476;51.448;6.674;2022-12-07T16:24:25;12.40;51.00
33105;DHT22;19476;51.448;6.674;2022-12-07T16:26:51;12.40;51.00
33105;DHT22;19476;51.448;6.674;2022-12-07T16:29:18;12.40;50.90
33105;DHT22;19476;51.448;6.674;2022-12-07T16:31:44;12.40;51.00
33105;DHT22;19476;51.448;6.674;2022-12-07T16:34:10;12.40;50.90
33105;DHT22;19476;51.448;6.674;2022-12-07T16:36:36;12.30;50.80
33105;DHT22;19476;51.448;6.674;2022-12-07T16:39:04;12.30;50.80
33105;DHT22;19476;51.448;6.674;2022-12-07T16:41:30;12.30;50.80
33105;DHT22;19476;51.448;6.674;2022-12-07T16:43:56;12.30;50.80
33105;DHT22;19476;51.448;6.674;2022-12-07T16:46:21;12.30;50.70
33105;DHT22;19476;51.448;6.674;2022-12-07T16:48:47;12.30;50.70
33105;DHT22;19476;51.448;6.674;2022-12-07T16:51:13;12.30;50.80
33105;DHT22;19476;51.448;6.674;2022-12-07T16:53:41;12.00;50.70
33105;DHT22;19476;51.448;6.674;2022-12-07T16:56:14;12.20;50.90
33105;DHT22;19476;51.448;6.674;2022-12-07T16:58:41;12.20;50.90
33105;DHT22;19476;51.448;6.674;2022-12-07T17:01:12;12.20;51.10
33105;DHT22;19476;51.448;6.674;2022-12-07T17:03:39;12.20;51.00
33105;DHT22;19476;51.448;6.674;2022-12-07T17:06:16;12.10;51.00
33105;DHT22;19476;51.448;6.674;2022-12-07T17:08:42;12.10;51.10
33105;DHT22;19476;51.448;6.674;2022-12-07T17:13:42;12.00;51.20
33105;DHT22;19476;51.448;6.674;2022-12-07T17:16:26;12.00;51.30
33105;DHT22;19476;51.448;6.674;2022-12-07T17:18:52;12.00;51.40
33105;DHT22;19476;51.448;6.674;2022-12-07T17:21:18;11.90;51.40
33105;DHT22;19476;51.448;6.674;2022-12-07T17:23:44;11.90;51.40
33105;DHT22;19476;51.448;6.674;2022-12-07T17:26:17;11.90;51.50
33105;DHT22;19476;51.448;6.674;2022-12-07T17:28:43;11.80;51.60
33105;DHT22;19476;51.448;6.674;2022-12-07T17:31:15;11.90;51.70
33105;DHT22;19476;51.448;6.674;2022-12-07T17:33:41;11.80;51.80
33105;DHT22;19476;51.448;6.674;2022-12-07T17:36:17;11.80;51.70
33105;DHT22;19476;51.448;6.674;2022-12-07T17:38:44;11.80;51.80